Time;durP1;ratioP1;P1;durP2;ratioP2;P2;SDS_P1;SDS_P2;PMS_P1;PMS_P2;Temp;Humidity;BMP_temperature;BMP_pressure;BME280_temperature;BME280_humidity;BME280_pressure;Samples;Min_cycle;Max_cycle;Signal;HPM_P1;HPM_P2
2023/02/27 00:00:54;;;;;;;6.68;6.07;;;4.10;93.80;;;;;;4912314;29;20225;-84
2023/02/27 00:03:20;;;;;;;6.60;5.97;;;4.40;93.70;;;;;;4915590;29;20190;-83
2023/02/27 00:05:46;;;;;;;6.30;5.80;;;4.10;93.30;;;;;;4930980;29;20221;-84
2023/02/27 00:08:12;;;;;;;6.47;5.90;;;4.10;93.20;;;;;;4916134;29;20205;-84
2023/02/27 00:10:44;;;;;;;6.40;5.80;;;4.10;93.40;;;;;;4915589;29;20262;-84
2023/02/27 00:13:10;;;;;;;6.40;5.85;;;4.10;93.40;;;;;;4916142;29;20837;-83
2023/02/27 00:15:37;;;;;;;6.90;6.30;;;4.00;93.20;;;;;;4914585;29;20195;-84
2023/02/27 00:18:03;;;;;;;7.80;6.13;;;4.10;93.30;;;;;;4911148;29;20549;-82
2023/02/27 00:20:31;;;;;;;5.90;5.30;;;4.10;93.20;;;;;;4911915;29;20186;-82
2023/02/27 00:22:56;;;;;;;6.10;5.60;;;4.10;93.30;;;;;;4910426;29;20734;-82
2023/02/27 00:25:22;;;;;;;5.80;5.30;;;4.20;93.40;;;;;;4895023;29;20229;-83
2023/02/27 00:27:48;;;;;;;6.47;5.87;;;4.20;93.10;;;;;;4911468;29;20446;-78
2023/02/27 00:30:14;;;;;;;6.10;5.60;;;4.20;93.00;;;;;;4914109;29;20242;-88
2023/02/27 00:32:41;;;;;;;6.30;5.80;;;4.20;92.90;;;;;;4914984;29;20197;-85
2023/02/27 00:35:09;;;;;;;6.10;5.50;;;4.30;92.60;;;;;;4912821;29;20217;-85
2023/02/27 00:37:34;;;;;;;5.78;5.38;;;4.30;92.10;;;;;;4915446;29;20175;-85
2023/02/27 00:40:01;;;;;;;5.57;5.17;;;;;;;;;;4914883;29;20175;-84
2023/02/27 00:42:27;;;;;;;5.70;5.20;;;4.10;91.70;;;;;;4915715;29;20812;-85
2023/02/27 00:44:53;;;;;;;5.97;5.43;;;4.80;92.60;;;;;;4915505;29;20198;-84
2023/02/27 00:47:19;;;;;;;6.00;5.50;;;4.10;92.20;;;;;;4916400;29;20190;-85
2023/02/27 00:49:44;;;;;;;6.80;6.27;;;4.10;98.50;;;;;;4915614;29;20498;-85
2023/02/27 00:52:10;;;;;;;6.27;5.77;;;;;;;;;;4915912;29;20186;-84
2023/02/27 00:54:36;;;;;;;6.03;5.55;;;4.00;91.70;;;;;;4915015;29;20194;-84
2023/02/27 00:57:02;;;;;;;5.73;5.33;;;4.00;92.20;;;;;;4913703;29;20214;-84
2023/02/27 00:59:28;;;;;;;6.37;5.87;;;4.00;92.40;;;;;;4914284;29;20229;-85
2023/02/27 01:01:54;;;;;;;6.33;5.47;;;;;;;;;;4914328;29;20801;-85
2023/02/27 01:04:19;;;;;;;6.78;5.50;;;4.00;92.00;;;;;;4915005;29;20537;-84
2023/02/27 01:06:45;;;;;;;6.17;5.50;;;4.40;92.60;;;;;;4916250;29;20235;-84
2023/02/27 01:09:11;;;;;;;7.10;5.53;;;4.00;99.90;;;;;;4913182;29;20245;-84
2023/02/27 01:11:37;;;;;;;7.23;5.30;;;4.00;92.40;;;;;;4914003;29;20597;-84
2023/02/27 01:14:03;;;;;;;5.93;5.50;;;4.00;99.90;;;;;;4900402;29;20443;-84
2023/02/27 01:16:29;;;;;;;6.45;5.85;;;4.00;92.40;;;;;;4912012;29;20212;-84
2023/02/27 01:18:55;;;;;;;6.00;5.50;;;3.70;99.90;;;;;;4914424;29;20178;-84
2023/02/27 01:21:21;;;;;;;5.80;5.40;;;;;;;;;;4914576;29;20435;-84
2023/02/27 01:23:47;;;;;;;6.00;5.60;;;4.50;99.90;;;;;;4915164;29;20178;-84
2023/02/27 01:26:13;;;;;;;6.20;5.60;;;3.60;99.90;;;;;;4929441;29;20269;-84
2023/02/27 01:28:38;;;;;;;5.87;5.37;;;2.90;99.90;;;;;;4918566;29;20190;-84
2023/02/27 01:31:04;;;;;;;7.27;5.30;;;3.60;99.90;;;;;;4918174;29;20253;-84
2023/02/27 01:33:30;;;;;;;6.07;5.40;;;;;;;;;;4917752;29;20628;-83
2023/02/27 01:35:56;;;;;;;5.75;5.35;;;3.60;99.90;;;;;;4918684;29;20321;-83
2023/02/27 01:38:22;;;;;;;6.10;5.60;;;;;;;;;;4917585;29;20277;-84
2023/02/27 01:40:48;;;;;;;7.88;6.00;;;3.50;99.90;;;;;;4915490;29;20268;-84
2023/02/27 01:43:16;;;;;;;5.93;5.43;;;3.60;93.90;;;;;;4901296;29;20709;-84
2023/02/27 01:45:46;;;;;;;5.97;5.47;;;3.60;94.30;;;;;;4933196;29;20237;-84
2023/02/27 01:48:33;;;;;;;6.10;5.50;;;3.60;99.90;;;;;;4917455;29;20526;-85
2023/02/27 01:51:12;;;;;;;6.10;5.25;;;3.60;93.90;;;;;;4917157;29;20190;-84
2023/02/27 01:53:39;;;;;;;5.57;5.07;;;5.20;95.00;;;;;;4918234;29;20260;-83
2023/02/27 01:56:13;;;;;;;6.55;6.03;;;3.10;99.90;;;;;;4917102;29;20205;-85
2023/02/27 01:58:41;;;;;;;5.57;4.97;;;4.10;94.60;;;;;;4917992;29;20180;-85
2023/02/27 02:01:07;;;;;;;6.15;5.65;;;3.70;99.90;;;;;;4917444;29;20183;-84
2023/02/27 02:03:52;;;;;;;8.20;5.50;;;4.00;95.10;;;;;;4917477;29;20183;-85
2023/02/27 02:06:19;;;;;;;6.95;6.05;;;3.60;99.90;;;;;;4918114;29;20198;-85
2023/02/27 02:08:48;;;;;;;5.82;5.28;;;3.50;94.30;;;;;;4916415;29;20198;-84
2023/02/27 02:11:16;;;;;;;5.78;5.07;;;3.50;99.90;;;;;;4916953;29;20179;-84
2023/02/27 02:13:42;;;;;;;6.22;5.72;;;3.40;99.90;;;;;;4917976;29;20190;-90
2023/02/27 02:16:27;;;;;;;5.70;5.20;;;3.60;99.90;;;;;;4917055;29;20186;-91
2023/02/27 02:19:15;;;;;;;5.85;5.35;;;3.40;94.30;;;;;;4900310;29;20216;-83
2023/02/27 02:22:24;;;;;;;5.40;5.00;;;3.20;99.90;;;;;;4917693;29;20197;-89
2023/02/27 02:25:10;;;;;;;7.25;4.97;;;3.30;99.90;;;;;;4917606;29;20528;-90
2023/02/27 02:28:10;;;;;;;6.60;5.60;;;3.80;95.50;;;;;;4916482;29;20637;-89
2023/02/27 02:31:07;;;;;;;7.25;6.65;;;3.10;99.90;;;;;;4916711;29;20190;-89
2023/02/27 02:33:52;;;;;;;8.20;7.40;;;3.10;95.40;;;;;;4912468;29;20191;-90
2023/02/27 02:36:48;;;;;;;8.00;7.07;;;3.10;99.90;;;;;;4914892;29;20206;-91
2023/02/27 02:39:33;;;;;;;10.40;8.77;;;3.00;99.90;;;;;;4915660;29;20170;-91
2023/02/27 02:42:23;;;;;;;9.15;7.53;;;2.70;99.90;;;;;;4916383;29;20535;-90
2023/02/27 02:45:04;;;;;;;8.85;7.95;;;2.90;99.90;;;;;;4917209;29;20213;-89
2023/02/27 02:47:30;;;;;;;8.63;7.72;;;3.00;96.30;;;;;;4908684;29;20190;-90
2023/02/27 02:49:58;;;;;;;10.23;8.60;;;2.80;96.60;;;;;;4899390;29;20193;-83
2023/02/27 02:52:28;;;;;;;8.63;7.70;;;2.70;97.00;;;;;;4917764;29;20934;-89
2023/02/27 02:55:17;;;;;;;7.45;6.80;;;2.80;97.10;;;;;;4914986;29;20283;-83
2023/02/27 02:57:51;;;;;;;9.48;6.80;;;2.20;96.90;;;;;;4898706;29;20201;-88
2023/02/27 03:00:21;;;;;;;7.00;6.22;;;2.80;99.90;;;;;;4916783;29;20169;-90
2023/02/27 03:02:53;;;;;;;7.05;6.32;;;3.00;99.90;;;;;;4915982;29;20638;-89
2023/02/27 03:05:37;;;;;;;7.20;6.60;;;2.90;99.90;;;;;;4915973;29;20221;-89
2023/02/27 03:08:16;;;;;;;8.25;6.55;;;2.80;99.90;;;;;;4916585;29;20220;-89
2023/02/27 03:10:57;;;;;;;9.48;6.20;;;2.80;96.80;;;;;;4915619;29;20174;-89
2023/02/27 03:13:30;;;;;;;7.15;5.97;;;2.80;96.60;;;;;;4916541;29;20194;-84
2023/02/27 03:15:56;;;;;;;6.50;5.90;;;;;;;;;;4908662;29;20202;-83
2023/02/27 03:18:27;;;;;;;7.47;6.68;;;2.80;99.90;;;;;;4916799;29;20185;-90
2023/02/27 03:21:28;;;;;;;9.13;6.32;;;2.70;99.90;;;;;;4924298;29;20181;-89
2023/02/27 03:23:57;;;;;;;6.78;6.13;;;2.70;99.90;;;;;;4902002;29;20234;-89
2023/02/27 03:26:30;;;;;;;8.05;6.32;;;2.80;99.90;;;;;;4916124;29;20249;-90
2023/02/27 03:29:12;;;;;;;6.57;5.97;;;2.80;97.40;;;;;;4931056;29;20537;-82
2023/02/27 03:31:44;;;;;;;7.20;6.60;;;2.30;99.90;;;;;;4915289;29;20636;-90
2023/02/27 03:34:29;;;;;;;7.95;5.95;;;2.70;99.90;;;;;;4915494;29;20183;-89
2023/02/27 03:37:11;;;;;;;11.07;5.45;;;2.90;99.90;;;;;;4915702;29;20182;-89
2023/02/27 03:39:49;;;;;;;6.60;6.00;;;2.80;99.90;;;;;;4916110;29;20253;-89
2023/02/27 03:42:19;;;;;;;7.78;6.20;;;2.80;99.90;;;;;;4914585;29;20233;-89
2023/02/27 03:45:04;;;;;;;7.20;5.80;;;2.80;97.20;;;;;;4916986;29;20368;-89
2023/02/27 03:47:31;;;;;;;7.40;6.30;;;2.80;97.40;;;;;;4916189;29;20204;-89
2023/02/27 03:49:57;;;;;;;6.65;5.60;;;;;;;;;;4915889;29;20176;-81
2023/02/27 03:52:26;;;;;;;6.85;6.18;;;2.60;99.90;;;;;;4915429;29;20193;-89
2023/02/27 03:55:26;;;;;;;7.53;6.82;;;2.70;99.90;;;;;;4915787;29;20201;-89
2023/02/27 03:57:52;;;;;;;12.57;6.10;;;2.60;99.90;;;;;;4912880;29;20646;-89
2023/02/27 04:00:23;;;;;;;6.70;6.00;;;2.80;99.90;;;;;;4915164;29;20251;-90
2023/02/27 04:02:51;;;;;;;6.75;6.00;;;3.60;99.90;;;;;;4915359;29;20448;-90
2023/02/27 04:05:19;;;;;;;5.45;5.05;;;2.90;99.90;;;;;;4915630;29;20206;-83
2023/02/27 04:08:04;;;;;;;8.05;5.95;;;3.00;99.90;;;;;;4915421;29;20654;-86
2023/02/27 04:10:32;;;;;;;6.72;5.85;;;2.90;99.90;;;;;;4915714;29;20194;-84
2023/02/27 04:13:17;;;;;;;7.25;5.53;;;3.00;97.40;;;;;;4915728;29;20192;-79
2023/02/27 04:16:03;;;;;;;6.10;5.40;;;2.90;99.90;;;;;;4915814;29;20185;-84
2023/02/27 04:18:47;;;;;;;5.47;5.07;;;2.90;99.90;;;;;;4915833;29;20241;-84
2023/02/27 04:21:31;;;;;;;5.90;5.00;;;2.70;99.90;;;;;;4915934;29;20186;-85
2023/02/27 04:24:09;;;;;;;6.90;6.20;;;2.70;99.90;;;;;;4921517;29;20183;-85
2023/02/27 04:27:18;;;;;;;7.10;6.47;;;3.20;99.90;;;;;;4924518;29;20203;-82
2023/02/27 04:30:09;;;;;;;6.13;5.47;;;2.60;99.90;;;;;;4898745;29;20197;-83
2023/02/27 04:32:41;;;;;;;7.25;5.95;;;2.60;99.90;;;;;;4921577;29;20258;-84
2023/02/27 04:35:33;;;;;;;7.38;6.57;;;2.50;99.90;;;;;;4914235;29;20213;-84
2023/02/27 04:38:33;;;;;;;7.55;6.75;;;2.50;99.90;;;;;;4910700;29;20253;-84
2023/02/27 04:41:04;;;;;;;6.30;5.68;;;2.50;99.90;;;;;;4914718;29;20641;-83
2023/02/27 04:43:32;;;;;;;7.18;6.60;;;2.50;99.90;;;;;;4916682;29;20729;-84
2023/02/27 04:46:00;;;;;;;11.23;6.53;;;2.40;97.80;;;;;;4915603;29;20549;-84
2023/02/27 04:48:32;;;;;;;6.70;6.05;;;2.20;99.90;;;;;;4915490;29;20557;-84
2023/02/27 04:51:11;;;;;;;9.38;5.38;;;2.30;99.90;;;;;;4918102;29;20171;-83
2023/02/27 04:53:45;;;;;;;6.00;5.50;;;2.20;99.90;;;;;;4898289;29;20170;-84
2023/02/27 04:56:16;;;;;;;7.13;6.43;;;2.20;99.90;;;;;;4910349;29;20200;-83
2023/02/27 04:58:53;;;;;;;7.45;6.20;;;2.20;99.90;;;;;;4914380;29;20265;-83
2023/02/27 05:01:28;;;;;;;8.35;6.28;;;2.20;99.90;;;;;;4915614;29;20320;-83
2023/02/27 05:03:56;;;;;;;5.72;5.13;;;2.20;99.90;;;;;;4919946;29;20184;-83
2023/02/27 05:06:28;;;;;;;6.60;5.93;;;2.20;99.90;;;;;;4918577;29;20248;-83
2023/02/27 05:09:43;;;;;;;6.85;6.15;;;2.20;99.90;;;;;;4919455;29;20185;-83
2023/02/27 05:12:27;;;;;;;8.15;7.35;;;2.20;99.90;;;;;;4913398;29;20197;-83
2023/02/27 05:14:59;;;;;;;7.80;7.00;;;2.20;98.30;;;;;;4920356;29;20184;-83
2023/02/27 05:17:48;;;;;;;7.45;5.72;;;2.30;99.90;;;;;;4917113;29;20188;-83
2023/02/27 05:20:16;;;;;;;7.65;6.22;;;2.50;99.90;;;;;;4917780;29;20193;-83
2023/02/27 05:23:10;;;;;;;6.60;5.95;;;2.10;99.90;;;;;;4918335;29;20181;-84
2023/02/27 05:25:44;;;;;;;6.05;5.55;;;2.20;99.50;;;;;;4915408;29;20205;-84
2023/02/27 05:28:34;;;;;;;6.93;6.30;;;2.20;99.40;;;;;;4911959;29;20538;-83
2023/02/27 05:31:43;;;;;;;7.18;6.47;;;2.10;99.70;;;;;;4918776;29;20184;-83
2023/02/27 05:34:24;;;;;;;6.32;5.80;;;2.20;99.90;;;;;;4918714;29;20277;-83
2023/02/27 05:36:57;;;;;;;6.03;5.45;;;2.20;99.90;;;;;;4919742;29;20185;-84
2023/02/27 05:39:28;;;;;;;6.18;5.65;;;2.30;99.40;;;;;;4919049;29;20260;-84
2023/02/27 05:42:01;;;;;;;6.82;5.78;;;2.30;99.20;;;;;;4919185;29;20190;-83
2023/02/27 05:44:34;;;;;;;7.47;6.15;;;2.30;99.10;;;;;;4917598;29;20187;-84
2023/02/27 05:47:04;;;;;;;9.15;6.40;;;2.40;99.00;;;;;;4921924;29;20182;-84
2023/02/27 05:49:31;;;;;;;8.45;6.60;;;2.30;98.80;;;;;;4918378;29;20264;-83
2023/02/27 05:52:01;;;;;;;10.00;6.30;;;2.30;98.60;;;;;;4918668;29;20541;-84
2023/02/27 05:54:30;;;;;;;12.95;7.13;;;2.30;98.50;;;;;;4932252;29;20342;-84
2023/02/27 05:56:58;;;;;;;10.13;6.03;;;2.60;98.60;;;;;;4918213;29;20512;-84
2023/02/27 05:59:27;;;;;;;7.25;6.65;;;2.20;98.00;;;;;;4917450;29;20186;-84
2023/02/27 06:01:53;;;;;;;6.93;6.38;;;2.20;98.20;;;;;;4917434;29;20186;-81
2023/02/27 06:04:19;;;;;;;6.75;6.20;;;2.20;98.30;;;;;;4917463;29;20185;-84
2023/02/27 06:06:44;;;;;;;6.17;5.63;;;2.10;98.20;;;;;;4918296;29;20766;-84
2023/02/27 06:09:10;;;;;;;6.90;6.00;;;2.10;98.40;;;;;;4917862;29;20184;-83
2023/02/27 06:11:36;;;;;;;9.77;7.00;;;2.00;98.70;;;;;;4918808;29;20277;-83
2023/02/27 06:14:02;;;;;;;6.87;6.30;;;2.00;99.10;;;;;;4918285;29;20640;-83
2023/02/27 06:16:27;;;;;;;6.57;5.88;;;2.00;99.60;;;;;;4917365;29;20333;-83
2023/02/27 06:18:54;;;;;;;6.43;5.70;;;2.00;99.30;;;;;;4919378;29;20180;-84
2023/02/27 06:21:20;;;;;;;16.63;6.63;;;2.00;98.80;;;;;;4918104;29;20663;-84
2023/02/27 06:23:45;;;;;;;6.67;6.07;;;2.00;98.50;;;;;;4917269;29;20189;-84
2023/02/27 06:26:13;;;;;;;7.60;6.93;;;2.00;98.60;;;;;;4918701;29;20216;-83
2023/02/27 06:28:40;;;;;;;8.68;7.65;;;2.00;98.70;;;;;;4902198;29;20549;-83
2023/02/27 06:31:05;;;;;;;8.80;7.13;;;1.80;99.80;;;;;;4918812;29;20590;-83
2023/02/27 06:33:32;;;;;;;8.43;6.70;;;1.80;99.90;;;;;;4917813;29;20205;-83
2023/02/27 06:35:57;;;;;;;13.35;7.07;;;1.90;99.90;;;;;;4918329;29;20435;-83
2023/02/27 06:38:23;;;;;;;7.57;6.70;;;1.90;99.90;;;;;;4918150;29;20590;-83
2023/02/27 06:40:50;;;;;;;8.80;7.33;;;1.80;99.90;;;;;;4918217;29;20577;-84
2023/02/27 06:43:16;;;;;;;12.98;8.77;;;1.70;99.90;;;;;;4915393;29;20712;-84
2023/02/27 06:45:41;;;;;;;9.10;7.60;;;1.70;99.90;;;;;;4916819;29;20220;-84
2023/02/27 06:48:08;;;;;;;10.00;7.67;;;1.70;99.90;;;;;;4916699;29;20188;-80
2023/02/27 06:50:34;;;;;;;11.18;8.60;;;1.70;99.90;;;;;;4917825;29;20922;-84
2023/02/27 06:53:00;;;;;;;10.47;8.40;;;1.90;99.90;;;;;;4921297;29;20203;-84
2023/02/27 06:55:26;;;;;;;9.50;8.07;;;2.80;99.90;;;;;;4922714;29;20178;-85
2023/02/27 06:57:51;;;;;;;8.03;7.23;;;2.00;99.90;;;;;;4919433;29;20540;-84
2023/02/27 07:00:17;;;;;;;9.60;7.30;;;2.10;99.90;;;;;;4915355;29;20264;-87
2023/02/27 07:02:43;;;;;;;9.55;7.93;;;2.10;99.90;;;;;;4928326;29;20191;-88
2023/02/27 07:05:10;;;;;;;13.27;7.83;;;2.20;99.90;;;;;;4930311;29;20217;-83
2023/02/27 07:07:36;;;;;;;8.82;7.93;;;2.30;99.90;;;;;;4934303;29;20191;-94
2023/02/27 07:10:03;;;;;;;9.93;8.30;;;2.40;99.90;;;;;;4921317;29;20262;-92
2023/02/27 07:12:29;;;;;;;8.68;7.75;;;2.40;99.90;;;;;;4921879;29;20369;-84
2023/02/27 07:14:55;;;;;;;9.40;8.03;;;2.50;99.90;;;;;;4925781;29;20222;-91
2023/02/27 07:17:21;;;;;;;10.60;7.37;;;2.50;99.90;;;;;;4932997;29;20185;-90
2023/02/27 07:19:47;;;;;;;9.43;8.48;;;2.60;99.90;;;;;;4932889;29;20212;-91
2023/02/27 07:22:13;;;;;;;11.80;9.07;;;2.70;99.90;;;;;;4933801;29;20217;-84
2023/02/27 07:24:38;;;;;;;10.02;9.23;;;2.60;99.90;;;;;;4931260;29;20244;-86
2023/02/27 07:27:04;;;;;;;11.30;10.13;;;2.80;99.90;;;;;;4919183;29;20654;-89
2023/02/27 07:29:34;;;;;;;10.35;9.35;;;4.10;99.90;;;;;;4914549;29;20183;-87
2023/02/27 07:32:00;;;;;;;10.70;9.70;;;4.60;99.90;;;;;;4915625;29;20627;-89
2023/02/27 07:34:26;;;;;;;13.25;9.65;;;5.50;99.90;;;;;;4916219;29;20193;-89
2023/02/27 07:36:52;;;;;;;10.10;8.90;;;6.00;99.90;;;;;;4918359;29;20631;-86
2023/02/27 07:39:18;;;;;;;9.73;8.83;;;5.80;93.60;;;;;;4916875;29;20190;-85
2023/02/27 07:41:44;;;;;;;9.47;8.67;;;5.40;92.80;;;;;;4917692;29;20186;-83
2023/02/27 07:44:10;;;;;;;9.57;8.77;;;5.30;93.00;;;;;;4916400;29;20467;-84
2023/02/27 07:46:36;;;;;;;10.00;8.93;;;5.10;92.90;;;;;;4916082;29;20958;-84
2023/02/27 07:49:02;;;;;;;10.30;9.20;;;5.00;93.40;;;;;;4915950;29;20191;-83
2023/02/27 07:51:28;;;;;;;9.97;9.10;;;4.80;93.60;;;;;;4916049;29;20228;-85
2023/02/27 07:53:58;;;;;;;12.10;9.80;;;4.60;93.90;;;;;;4917127;29;20409;-85
2023/02/27 07:56:25;;;;;;;11.00;8.95;;;4.50;94.50;;;;;;4917786;29;20393;-88
2023/02/27 07:58:51;;;;;;;13.35;9.57;;;4.30;95.20;;;;;;4916068;29;20206;-89
2023/02/27 08:01:16;;;;;;;10.67;8.70;;;4.30;95.70;;;;;;4915901;29;20182;-89
2023/02/27 08:03:44;;;;;;;11.43;9.40;;;4.20;96.10;;;;;;4916982;29;20175;-86
2023/02/27 08:06:10;;;;;;;12.60;9.40;;;4.20;97.00;;;;;;4916296;29;20245;-86
2023/02/27 08:08:36;;;;;;;13.53;10.60;;;4.10;97.60;;;;;;4911908;29;20686;-88
2023/02/27 08:11:01;;;;;;;18.30;9.77;;;4.10;98.10;;;;;;4915554;29;20191;-87
2023/02/27 08:13:27;;;;;;;12.13;10.13;;;4.00;98.30;;;;;;4900882;29;20187;-88
2023/02/27 08:15:53;;;;;;;11.33;10.10;;;3.90;98.40;;;;;;4911034;29;20186;-88
2023/02/27 08:18:19;;;;;;;11.77;9.90;;;3.80;99.20;;;;;;4915537;29;20258;-88
2023/02/27 08:20:47;;;;;;;17.77;9.75;;;3.80;99.80;;;;;;4898767;29;20186;-87
2023/02/27 08:23:13;;;;;;;14.82;9.43;;;3.90;99.90;;;;;;4916141;29;20236;-84
2023/02/27 08:25:38;;;;;;;10.20;9.27;;;3.90;99.90;;;;;;4915463;29;20252;-88
2023/02/27 08:28:04;;;;;;;9.80;8.80;;;4.00;99.90;;;;;;4915960;29;20222;-87
2023/02/27 08:30:30;;;;;;;9.00;8.10;;;3.90;99.90;;;;;;4913296;29;20186;-87
2023/02/27 08:32:55;;;;;;;9.67;8.73;;;4.00;99.90;;;;;;4914340;29;20531;-88
2023/02/27 08:35:21;;;;;;;10.50;8.70;;;4.00;99.90;;;;;;4914509;29;20221;-87
2023/02/27 08:37:48;;;;;;;9.10;8.30;;;4.80;99.90;;;;;;4914409;29;20603;-88
2023/02/27 08:40:15;;;;;;;10.25;8.75;;;4.20;99.90;;;;;;4915757;29;20261;-82
2023/02/27 08:42:41;;;;;;;9.85;8.95;;;4.20;99.90;;;;;;4918346;29;20234;-87
2023/02/27 08:45:08;;;;;;;9.50;8.47;;;4.20;99.90;;;;;;4916562;29;20206;-87
2023/02/27 08:47:33;;;;;;;9.95;8.98;;;4.30;99.90;;;;;;4916826;29;20266;-88
2023/02/27 08:49:59;;;;;;;9.90;9.00;;;4.90;99.90;;;;;;4918263;29;20590;-88
2023/02/27 08:52:25;;;;;;;8.80;7.73;;;4.40;99.90;;;;;;4918856;29;20642;-88
2023/02/27 08:54:50;;;;;;;8.73;7.90;;;4.40;99.90;;;;;;4920507;29;20181;-88
2023/02/27 08:57:16;;;;;;;9.20;8.40;;;4.50;99.90;;;;;;4918169;29;20336;-87
2023/02/27 08:59:42;;;;;;;8.53;7.83;;;4.40;99.90;;;;;;4919858;29;20622;-89
2023/02/27 09:02:09;;;;;;;9.30;8.50;;;4.50;99.90;;;;;;4914005;29;20185;-88
2023/02/27 09:04:35;;;;;;;8.88;8.18;;;4.50;99.90;;;;;;4918808;29;21024;-89
2023/02/27 09:07:01;;;;;;;8.17;7.47;;;4.60;99.90;;;;;;4916064;29;20710;-88
2023/02/27 09:09:26;;;;;;;9.53;8.10;;;4.70;99.90;;;;;;4917237;29;20649;-88
2023/02/27 09:11:52;;;;;;;9.00;8.20;;;4.90;99.90;;;;;;4918370;29;20423;-89
2023/02/27 09:14:19;;;;;;;10.00;7.60;;;5.00;99.90;;;;;;4918910;29;20183;-88
2023/02/27 09:16:44;;;;;;;8.60;7.70;;;5.10;99.90;;;;;;4918330;29;20191;-87
2023/02/27 09:19:11;;;;;;;8.53;7.80;;;5.40;99.70;;;;;;4918709;29;20671;-88
2023/02/27 09:21:37;;;;;;;8.00;7.30;;;5.30;99.70;;;;;;4918023;29;20635;-88
2023/02/27 09:24:04;;;;;;;7.93;7.13;;;5.40;99.60;;;;;;4917527;29;20269;-88
2023/02/27 09:26:29;;;;;;;7.38;6.68;;;5.60;99.90;;;;;;4902042;29;20317;-89
2023/02/27 09:28:55;;;;;;;9.73;7.07;;;5.70;99.90;;;;;;4918890;29;20269;-89
2023/02/27 09:31:21;;;;;;;6.77;6.37;;;6.20;98.50;;;;;;4916956;29;20187;-87
2023/02/27 09:33:46;;;;;;;8.03;7.03;;;5.90;97.10;;;;;;4917657;29;20209;-88
2023/02/27 09:36:12;;;;;;;6.97;6.20;;;5.70;98.40;;;;;;4919051;29;20246;-87
2023/02/27 09:38:38;;;;;;;6.37;5.87;;;5.80;97.50;;;;;;4914144;29;20209;-89
2023/02/27 09:41:06;;;;;;;7.17;6.57;;;5.60;96.40;;;;;;4917999;29;20471;-89
2023/02/27 09:43:35;;;;;;;6.30;5.80;;;5.60;97.00;;;;;;4916586;29;20222;-89
2023/02/27 09:46:02;;;;;;;7.32;6.30;;;6.00;97.70;;;;;;4918021;29;20294;-90
2023/02/27 09:48:44;;;;;;;6.53;5.93;;;6.20;96.60;;;;;;4915366;29;20235;-91
2023/02/27 09:51:10;;;;;;;6.10;5.47;;;6.60;96.60;;;;;;4902429;29;20408;-90
2023/02/27 09:53:38;;;;;;;6.53;5.83;;;7.00;94.80;;;;;;4917882;29;20958;-89
2023/02/27 09:56:18;;;;;;;5.40;5.00;;;7.30;94.50;;;;;;4917941;29;20423;-89
2023/02/27 09:58:59;;;;;;;6.10;5.60;;;7.60;93.20;;;;;;4917420;29;20465;-89
2023/02/27 10:01:49;;;;;;;5.40;5.00;;;8.00;93.30;;;;;;4918359;29;20416;-90
2023/02/27 10:04:30;;;;;;;4.90;4.50;;;8.30;90.80;;;;;;4919198;29;20395;-90
2023/02/27 10:07:09;;;;;;;5.30;4.80;;;8.50;90.20;;;;;;4914909;29;20463;-90
2023/02/27 10:09:43;;;;;;;7.90;5.30;;;8.80;87.80;;;;;;4917697;29;20430;-90
2023/02/27 10:12:16;;;;;;;7.17;5.63;;;8.90;89.60;;;;;;4918767;29;20430;-90
2023/02/27 10:14:47;;;;;;;5.47;4.90;;;9.00;84.90;;;;;;4917645;29;20446;-88
2023/02/27 10:17:48;;;;;;;5.50;5.00;;;9.40;97.20;;;;;;4917799;29;20438;-89
2023/02/27 10:20:31;;;;;;;5.53;4.70;;;9.40;83.70;;;;;;4908359;29;20937;-87
2023/02/27 10:23:04;;;;;;;4.60;4.30;;;9.70;84.50;;;;;;4900309;29;20505;-87
2023/02/27 10:25:37;;;;;;;4.70;4.40;;;9.90;95.80;;;;;;4908191;29;20456;-88
2023/02/27 10:28:15;;;;;;;4.93;4.43;;;9.90;82.00;;;;;;4918383;29;20916;-88
2023/02/27 10:30:47;;;;;;;4.77;4.43;;;10.20;79.40;;;;;;4915047;29;20429;-84
2023/02/27 10:33:28;;;;;;;4.77;4.33;;;10.20;80.50;;;;;;4923855;29;20516;-85
2023/02/27 10:35:54;;;;;;;5.20;3.83;;;10.30;92.40;;;;;;4917007;29;20463;-89
2023/02/27 10:38:55;;;;;;;5.10;4.70;;;10.40;79.20;;;;;;4920996;29;20529;-83
2023/02/27 10:41:21;;;;;;;6.07;4.53;;;10.50;76.20;;;;;;4904901;29;20471;-90
2023/02/27 10:43:48;;;;;;;4.67;4.27;;;;;;;;;;4914155;29;20477;-89
2023/02/27 10:46:24;;;;;;;4.20;3.90;;;10.40;75.10;;;;;;4916239;29;20468;-89
2023/02/27 10:48:51;;;;;;;4.20;4.00;;;10.20;75.60;;;;;;4917399;29;20486;-85
2023/02/27 10:51:33;;;;;;;6.13;4.43;;;10.20;75.90;;;;;;4917053;29;20484;-85
2023/02/27 10:54:13;;;;;;;4.07;3.67;;;10.40;78.70;;;;;;4916871;29;20470;-85
2023/02/27 10:56:39;;;;;;;3.60;3.40;;;;;;;;;;4915914;29;20450;-89
2023/02/27 10:59:18;;;;;;;4.30;3.90;;;10.60;71.10;;;;;;4918763;29;20174;-87
2023/02/27 11:01:47;;;;;;;4.80;3.37;;;10.60;71.80;;;;;;4916851;29;20429;-87
2023/02/27 11:04:22;;;;;;;3.63;3.33;;;10.70;72.50;;;;;;4917285;29;20431;-87
2023/02/27 11:06:52;;;;;;;3.73;3.40;;;10.70;72.10;;;;;;4918035;29;20445;-85
2023/02/27 11:09:27;;;;;;;3.83;3.53;;;9.90;71.60;;;;;;4917515;29;20784;-85
2023/02/27 11:11:53;;;;;;;7.27;3.20;;;10.30;90.10;;;;;;4916522;29;20438;-83
2023/02/27 11:14:32;;;;;;;4.27;3.50;;;10.20;73.60;;;;;;4915341;29;20439;-88
2023/02/27 11:17:00;;;;;;;3.13;2.93;;;10.40;71.80;;;;;;4900538;29;20411;-88
2023/02/27 11:19:35;;;;;;;4.47;2.90;;;10.30;68.30;;;;;;4916326;29;20830;-89
2023/02/27 11:22:03;;;;;;;4.60;3.27;;;10.20;68.60;;;;;;4914540;29;20616;-85
2023/02/27 11:24:29;;;;;;;3.67;3.37;;;10.40;69.90;;;;;;4916355;29;20430;-90
2023/02/27 11:27:05;;;;;;;3.83;3.63;;;10.60;70.10;;;;;;4917098;29;20494;-89
2023/02/27 11:29:33;;;;;;;3.23;3.13;;;10.90;69.50;;;;;;4915960;29;20205;-89
2023/02/27 11:32:09;;;;;;;3.70;3.40;;;11.20;69.50;;;;;;4917353;29;20425;-90
2023/02/27 11:34:40;;;;;;;3.43;3.23;;;11.20;68.90;;;;;;4914929;29;20437;-90
2023/02/27 11:37:20;;;;;;;4.30;3.70;;;11.50;68.60;;;;;;4916597;29;20458;-89
2023/02/27 11:39:51;;;;;;;5.47;4.33;;;11.80;69.70;;;;;;4915958;29;20477;-89
2023/02/27 11:42:35;;;;;;;4.40;4.00;;;12.10;67.00;;;;;;4904241;29;20480;-89
2023/02/27 11:45:20;;;;;;;3.97;3.70;;;12.30;66.80;;;;;;4916085;29;20447;-89
2023/02/27 11:47:53;;;;;;;4.30;4.03;;;12.40;63.20;;;;;;4916816;29;20412;-88
2023/02/27 11:50:29;;;;;;;4.20;3.90;;;12.40;63.00;;;;;;4916610;29;20472;-90
2023/02/27 11:53:12;;;;;;;3.90;3.63;;;12.50;61.40;;;;;;4913155;29;20446;-87
2023/02/27 11:55:38;;;;;;;4.30;3.63;;;12.60;62.00;;;;;;4898221;29;20415;-88
2023/02/27 11:58:13;;;;;;;4.30;4.00;;;12.60;62.70;;;;;;4911286;29;20442;-87
2023/02/27 12:00:54;;;;;;;3.67;3.47;;;12.70;61.00;;;;;;4915627;29;20181;-88
2023/02/27 12:03:27;;;;;;;3.90;3.60;;;12.70;62.50;;;;;;4916635;29;20812;-84
2023/02/27 12:05:57;;;;;;;4.23;3.90;;;12.70;60.00;;;;;;4905159;29;20473;-85
2023/02/27 12:08:44;;;;;;;4.27;3.97;;;12.60;60.20;;;;;;4912300;29;20524;-85
2023/02/27 12:11:26;;;;;;;3.77;3.57;;;12.40;59.10;;;;;;4912750;29;20454;-85
2023/02/27 12:14:30;;;;;;;3.77;3.47;;;12.10;61.60;;;;;;4909516;29;20525;-86
2023/02/27 12:17:23;;;;;;;4.10;3.80;;;11.80;63.20;;;;;;4896928;29;20586;-85
2023/02/27 12:20:03;;;;;;;4.67;3.87;;;11.50;64.20;;;;;;4906221;29;20531;-85
2023/02/27 12:22:36;;;;;;;3.83;3.63;;;11.30;61.80;;;;;;4906843;29;20442;-81
2023/02/27 12:25:20;;;;;;;4.90;3.90;;;11.40;63.70;;;;;;4897538;29;20878;-86
2023/02/27 12:27:54;;;;;;;4.20;3.90;;;11.30;64.00;;;;;;4904744;29;20470;-86
2023/02/27 12:30:32;;;;;;;4.10;3.80;;;11.10;64.80;;;;;;4909438;29;20819;-85
2023/02/27 12:33:08;;;;;;;4.10;3.80;;;11.00;64.40;;;;;;4896592;29;20441;-92
2023/02/27 12:35:34;;;;;;;3.90;3.67;;;10.90;65.60;;;;;;4911086;29;20438;-91
2023/02/27 12:38:01;;;;;;;4.50;3.97;;;10.70;64.70;;;;;;4911202;29;21000;-92
2023/02/27 12:40:39;;;;;;;4.37;3.97;;;10.70;64.10;;;;;;4915615;29;20185;-91
2023/02/27 12:43:20;;;;;;;3.50;3.30;;;10.50;61.30;;;;;;4914168;29;20560;-91
2023/02/27 12:45:57;;;;;;;4.00;3.67;;;10.50;63.00;;;;;;4911754;29;20556;-89
2023/02/27 12:48:48;;;;;;;3.30;3.10;;;10.50;62.00;;;;;;4912844;29;20477;-90
2023/02/27 12:51:21;;;;;;;3.30;3.10;;;10.40;62.10;;;;;;4915306;29;20424;-89
2023/02/27 12:54:08;;;;;;;3.63;3.53;;;10.00;62.00;;;;;;4915875;29;20433;-90
2023/02/27 12:57:15;;;;;;;3.13;2.93;;;10.00;61.00;;;;;;4916969;29;20428;-90
2023/02/27 13:00:05;;;;;;;3.73;3.43;;;9.90;63.40;;;;;;4897808;29;20444;-90
2023/02/27 13:02:55;;;;;;;3.23;3.10;;;9.50;65.00;;;;;;4935341;29;20436;-86
2023/02/27 13:05:22;;;;;;;4.63;4.30;;;9.70;65.00;;;;;;4932907;29;20468;-86
2023/02/27 13:08:05;;;;;;;4.67;4.13;;;9.90;69.70;;;;;;4915459;29;20431;-87
2023/02/27 13:11:03;;;;;;;5.10;4.57;;;10.00;68.10;;;;;;4916202;29;20467;-86
2023/02/27 13:13:31;;;;;;;8.87;4.50;;;9.70;71.80;;;;;;4899155;29;20460;-87
2023/02/27 13:16:10;;;;;;;4.57;3.87;;;9.70;73.90;;;;;;4914633;29;20530;-86
2023/02/27 13:18:55;;;;;;;4.73;4.33;;;9.60;74.20;;;;;;4901049;29;20436;-89
2023/02/27 13:21:34;;;;;;;5.67;4.23;;;9.40;72.90;;;;;;4913127;29;20477;-88
2023/02/27 13:24:22;;;;;;;4.17;3.90;;;9.10;73.30;;;;;;4918214;29;20437;-87
2023/02/27 13:27:11;;;;;;;5.70;5.20;;;8.90;73.20;;;;;;4918380;29;20462;-88